sensor_id;sensor_type;location;lat;lon;timestamp;temperature;humidity
17795;DHT22;9021;50.882;4.326;2023-12-14T00:00:43;10.70;99.90
17795;DHT22;9021;50.882;4.326;2023-12-14T00:03:09;10.80;99.90
17795;DHT22;9021;50.882;4.326;2023-12-14T00:05:34;10.90;99.90
17795;DHT22;9021;50.882;4.326;2023-12-14T00:08:01;11.20;99.90
17795;DHT22;9021;50.882;4.326;2023-12-14T00:10:26;10.90;99.90
17795;DHT22;9021;50.882;4.326;2023-12-14T00:12:55;11.00;99.90
17795;DHT22;9021;50.882;4.326;2023-12-14T00:15:21;10.90;99.90
17795;DHT22;9021;50.882;4.326;2023-12-14T00:17:47;10.90;99.90
17795;DHT22;9021;50.882;4.326;2023-12-14T00:20:12;10.80;99.90
17795;DHT22;9021;50.882;4.326;2023-12-14T00:22:39;10.80;99.90
17795;DHT22;9021;50.882;4.326;2023-12-14T00:25:05;10.90;99.90
17795;DHT22;9021;50.882;4.326;2023-12-14T00:27:31;10.90;99.90
17795;DHT22;9021;50.882;4.326;2023-12-14T00:29:57;11.00;99.90
17795;DHT22;9021;50.882;4.326;2023-12-14T00:32:25;10.90;99.90
17795;DHT22;9021;50.882;4.326;2023-12-14T00:34:50;10.80;99.90
17795;DHT22;9021;50.882;4.326;2023-12-14T00:37:16;10.80;99.90
17795;DHT22;9021;50.882;4.326;2023-12-14T00:39:42;10.90;99.90
17795;DHT22;9021;50.882;4.326;2023-12-14T00:42:07;10.90;99.90
17795;DHT22;9021;50.882;4.326;2023-12-14T00:44:33;10.80;99.90
17795;DHT22;9021;50.882;4.326;2023-12-14T00:46:59;10.70;99.90
17795;DHT22;9021;50.882;4.326;2023-12-14T00:49:25;10.70;99.90
17795;DHT22;9021;50.882;4.326;2023-12-14T00:51:53;10.00;99.90
17795;DHT22;9021;50.882;4.326;2023-12-14T00:54:19;10.70;99.90
17795;DHT22;9021;50.882;4.326;2023-12-14T00:56:44;10.70;99.90
17795;DHT22;9021;50.882;4.326;2023-12-14T00:59:10;10.80;99.90
17795;DHT22;9021;50.882;4.326;2023-12-14T01:01:35;10.80;99.90
17795;DHT22;9021;50.882;4.326;2023-12-14T01:04:01;10.80;99.90
17795;DHT22;9021;50.882;4.326;2023-12-14T01:06:26;10.70;99.90
17795;DHT22;9021;50.882;4.326;2023-12-14T01:08:52;10.70;99.90
17795;DHT22;9021;50.882;4.326;2023-12-14T01:11:18;10.80;99.90
17795;DHT22;9021;50.882;4.326;2023-12-14T01:13:43;10.80;99.90
17795;DHT22;9021;50.882;4.326;2023-12-14T01:16:09;10.80;99.90
17795;DHT22;9021;50.882;4.326;2023-12-14T01:18:34;10.90;99.90
17795;DHT22;9021;50.882;4.326;2023-12-14T01:21:00;11.00;99.90
17795;DHT22;9021;50.882;4.326;2023-12-14T01:23:26;10.90;99.90
17795;DHT22;9021;50.882;4.326;2023-12-14T01:25:51;10.90;99.90
17795;DHT22;9021;50.882;4.326;2023-12-14T01:28:17;10.90;99.90
17795;DHT22;9021;50.882;4.326;2023-12-14T01:30:42;10.90;99.90
17795;DHT22;9021;50.882;4.326;2023-12-14T01:33:08;11.00;99.90
17795;DHT22;9021;50.882;4.326;2023-12-14T01:35:34;10.90;99.90
17795;DHT22;9021;50.882;4.326;2023-12-14T01:37:59;10.90;99.90
17795;DHT22;9021;50.882;4.326;2023-12-14T01:40:25;10.90;99.90
17795;DHT22;9021;50.882;4.326;2023-12-14T01:42:50;10.70;99.90
17795;DHT22;9021;50.882;4.326;2023-12-14T01:45:16;10.70;99.90
17795;DHT22;9021;50.882;4.326;2023-12-14T01:47:43;10.70;99.90
17795;DHT22;9021;50.882;4.326;2023-12-14T01:50:09;10.70;99.90
17795;DHT22;9021;50.882;4.326;2023-12-14T01:52:34;10.70;99.90
17795;DHT22;9021;50.882;4.326;2023-12-14T01:55:00;10.80;99.90
17795;DHT22;9021;50.882;4.326;2023-12-14T01:57:28;10.70;99.90
17795;DHT22;9021;50.882;4.326;2023-12-14T01:59:53;10.70;99.90
17795;DHT22;9021;50.882;4.326;2023-12-14T02:02:19;10.70;99.90
17795;DHT22;9021;50.882;4.326;2023-12-14T02:04:45;10.70;99.90
17795;DHT22;9021;50.882;4.326;2023-12-14T02:07:11;10.60;99.90
17795;DHT22;9021;50.882;4.326;2023-12-14T02:09:39;10.50;99.90
17795;DHT22;9021;50.882;4.326;2023-12-14T02:12:05;10.60;99.90
17795;DHT22;9021;50.882;4.326;2023-12-14T02:14:30;10.60;99.90
17795;DHT22;9021;50.882;4.326;2023-12-14T02:16:56;10.50;99.90
17795;DHT22;9021;50.882;4.326;2023-12-14T02:19:22;10.50;99.90
17795;DHT22;9021;50.882;4.326;2023-12-14T02:21:47;10.40;99.90
17795;DHT22;9021;50.882;4.326;2023-12-14T02:24:13;10.50;99.90
17795;DHT22;9021;50.882;4.326;2023-12-14T02:26:38;10.60;99.90
17795;DHT22;9021;50.882;4.326;2023-12-14T02:29:04;10.70;99.90
17795;DHT22;9021;50.882;4.326;2023-12-14T02:31:30;10.60;99.90
17795;DHT22;9021;50.882;4.326;2023-12-14T02:33:55;10.70;99.90
17795;DHT22;9021;50.882;4.326;2023-12-14T02:36:21;10.70;99.90
17795;DHT22;9021;50.882;4.326;2023-12-14T02:38:46;10.50;99.90
17795;DHT22;9021;50.882;4.326;2023-12-14T02:41:12;10.50;99.90
17795;DHT22;9021;50.882;4.326;2023-12-14T02:43:38;10.50;99.90
17795;DHT22;9021;50.882;4.326;2023-12-14T02:46:05;11.10;99.90
17795;DHT22;9021;50.882;4.326;2023-12-14T02:48:31;10.60;99.90
17795;DHT22;9021;50.882;4.326;2023-12-14T02:50:57;10.60;99.90
17795;DHT22;9021;50.882;4.326;2023-12-14T02:53:25;10.50;99.90
17795;DHT22;9021;50.882;4.326;2023-12-14T02:55:50;10.40;99.90
17795;DHT22;9021;50.882;4.326;2023-12-14T02:58:16;10.30;99.90
17795;DHT22;9021;50.882;4.326;2023-12-14T03:00:42;10.40;99.90
17795;DHT22;9021;50.882;4.326;2023-12-14T03:03:07;10.40;99.90
17795;DHT22;9021;50.882;4.326;2023-12-14T03:05:33;10.40;99.90
17795;DHT22;9021;50.882;4.326;2023-12-14T03:07:59;10.40;99.90
17795;DHT22;9021;50.882;4.326;2023-12-14T03:10:24;10.40;99.90
17795;DHT22;9021;50.882;4.326;2023-12-14T03:12:50;10.50;99.90
17795;DHT22;9021;50.882;4.326;2023-12-14T03:15:18;10.50;99.90
17795;DHT22;9021;50.882;4.326;2023-12-14T03:17:44;10.30;99.90
17795;DHT22;9021;50.882;4.326;2023-12-14T03:20:10;10.30;99.90
17795;DHT22;9021;50.882;4.326;2023-12-14T03:22:36;10.30;99.90
17795;DHT22;9021;50.882;4.326;2023-12-14T03:25:01;10.30;99.90
17795;DHT22;9021;50.882;4.326;2023-12-14T03:27:27;10.20;99.90
17795;DHT22;9021;50.882;4.326;2023-12-14T03:29:53;10.10;99.90
17795;DHT22;9021;50.882;4.326;2023-12-14T03:32:18;10.00;99.90
17795;DHT22;9021;50.882;4.326;2023-12-14T03:34:44;9.90;99.90
17795;DHT22;9021;50.882;4.326;2023-12-14T03:37:09;9.80;99.90
17795;DHT22;9021;50.882;4.326;2023-12-14T03:39:36;9.70;99.90
17795;DHT22;9021;50.882;4.326;2023-12-14T03:42:01;9.60;99.90
17795;DHT22;9021;50.882;4.326;2023-12-14T03:44:27;9.50;99.90
17795;DHT22;9021;50.882;4.326;2023-12-14T03:46:53;9.60;99.90
17795;DHT22;9021;50.882;4.326;2023-12-14T03:49:19;9.60;99.90
17795;DHT22;9021;50.882;4.326;2023-12-14T03:51:45;9.40;99.90
17795;DHT22;9021;50.882;4.326;2023-12-14T03:54:11;9.40;99.90
17795;DHT22;9021;50.882;4.326;2023-12-14T03:56:36;9.40;99.90
17795;DHT22;9021;50.882;4.326;2023-12-14T03:59:02;9.40;99.90
17795;DHT22;9021;50.882;4.326;2023-12-14T04:01:28;9.40;99.90
17795;DHT22;9021;50.882;4.326;2023-12-14T04:03:53;9.40;99.90
17795;DHT22;9021;50.882;4.326;2023-12-14T04:06:19;9.30;99.90
17795;DHT22;9021;50.882;4.326;2023-12-14T04:08:45;9.30;99.90
17795;DHT22;9021;50.882;4.326;2023-12-14T04:11:10;9.20;99.90
17795;DHT22;9021;50.882;4.326;2023-12-14T04:13:37;9.10;99.90
17795;DHT22;9021;50.882;4.326;2023-12-14T04:16:02;9.00;99.90
17795;DHT22;9021;50.882;4.326;2023-12-14T04:18:29;9.00;99.90
17795;DHT22;9021;50.882;4.326;2023-12-14T04:20:54;8.90;99.90
17795;DHT22;9021;50.882;4.326;2023-12-14T04:23:20;8.90;99.90
17795;DHT22;9021;50.882;4.326;2023-12-14T04:25:46;8.90;99.90
17795;DHT22;9021;50.882;4.326;2023-12-14T04:28:11;8.90;99.90
17795;DHT22;9021;50.882;4.326;2023-12-14T04:30:37;8.90;99.90
17795;DHT22;9021;50.882;4.326;2023-12-14T04:33:02;8.90;99.90
17795;DHT22;9021;50.882;4.326;2023-12-14T04:35:28;9.00;99.90
17795;DHT22;9021;50.882;4.326;2023-12-14T04:37:54;9.10;99.90
17795;DHT22;9021;50.882;4.326;2023-12-14T04:40:19;9.10;99.90
17795;DHT22;9021;50.882;4.326;2023-12-14T04:42:45;9.20;99.90
17795;DHT22;9021;50.882;4.326;2023-12-14T04:45:11;9.20;99.90
17795;DHT22;9021;50.882;4.326;2023-12-14T04:47:38;9.10;99.90
17795;DHT22;9021;50.882;4.326;2023-12-14T04:50:04;9.00;99.90
17795;DHT22;9021;50.882;4.326;2023-12-14T04:52:29;9.10;99.90
17795;DHT22;9021;50.882;4.326;2023-12-14T04:54:55;9.00;99.90
17795;DHT22;9021;50.882;4.326;2023-12-14T04:57:20;9.10;99.90
17795;DHT22;9021;50.882;4.326;2023-12-14T04:59:46;9.10;99.90
17795;DHT22;9021;50.882;4.326;2023-12-14T05:02:12;9.10;99.90
17795;DHT22;9021;50.882;4.326;2023-12-14T05:04:37;9.10;99.90
17795;DHT22;9021;50.882;4.326;2023-12-14T05:07:03;9.00;99.90
17795;DHT22;9021;50.882;4.326;2023-12-14T05:09:29;8.90;99.90
17795;DHT22;9021;50.882;4.326;2023-12-14T05:11:54;8.90;99.90
17795;DHT22;9021;50.882;4.326;2023-12-14T05:14:20;8.90;99.90
17795;DHT22;9021;50.882;4.326;2023-12-14T05:16:46;9.00;99.90
17795;DHT22;9021;50.882;4.326;2023-12-14T05:19:11;9.00;99.90
17795;DHT22;9021;50.882;4.326;2023-12-14T05:21:38;9.10;99.90
17795;DHT22;9021;50.882;4.326;2023-12-14T05:24:04;9.10;99.90
17795;DHT22;9021;50.882;4.326;2023-12-14T05:26:30;9.10;99.90
17795;DHT22;9021;50.882;4.326;2023-12-14T05:28:56;9.20;99.90
17795;DHT22;9021;50.882;4.326;2023-12-14T05:31:22;9.20;99.90
17795;DHT22;9021;50.882;4.326;2023-12-14T05:33:47;9.20;99.90
17795;DHT22;9021;50.882;4.326;2023-12-14T05:36:13;9.10;99.90
17795;DHT22;9021;50.882;4.326;2023-12-14T05:38:40;9.10;99.90
17795;DHT22;9021;50.882;4.326;2023-12-14T05:41:06;8.90;99.90
17795;DHT22;9021;50.882;4.326;2023-12-14T05:43:32;9.00;99.90
17795;DHT22;9021;50.882;4.326;2023-12-14T05:45:58;9.00;99.90
17795;DHT22;9021;50.882;4.326;2023-12-14T05:48:24;8.90;99.90
17795;DHT22;9021;50.882;4.326;2023-12-14T05:50:52;8.90;99.90
17795;DHT22;9021;50.882;4.326;2023-12-14T05:53:18;9.00;99.90
17795;DHT22;9021;50.882;4.326;2023-12-14T05:55:44;9.00;99.90
17795;DHT22;9021;50.882;4.326;2023-12-14T05:58:12;8.90;99.90
17795;DHT22;9021;50.882;4.326;2023-12-14T06:00:38;8.90;99.90
17795;DHT22;9021;50.882;4.326;2023-12-14T06:03:05;8.90;99.90
17795;DHT22;9021;50.882;4.326;2023-12-14T06:05:31;8.80;99.90
17795;DHT22;9021;50.882;4.326;2023-12-14T06:07:56;8.80;99.90
17795;DHT22;9021;50.882;4.326;2023-12-14T06:10:22;8.70;99.90
17795;DHT22;9021;50.882;4.326;2023-12-14T06:12:48;8.80;99.90
17795;DHT22;9021;50.882;4.326;2023-12-14T06:15:13;8.70;99.90
17795;DHT22;9021;50.882;4.326;2023-12-14T06:17:39;8.80;99.90
17795;DHT22;9021;50.882;4.326;2023-12-14T06:20:08;8.80;99.90
17795;DHT22;9021;50.882;4.326;2023-12-14T06:22:35;8.90;99.90
17795;DHT22;9021;50.882;4.326;2023-12-14T06:25:01;8.90;99.90
17795;DHT22;9021;50.882;4.326;2023-12-14T06:27:28;8.80;99.90
17795;DHT22;9021;50.882;4.326;2023-12-14T06:29:54;8.80;99.90
17795;DHT22;9021;50.882;4.326;2023-12-14T06:32:19;8.90;99.90
17795;DHT22;9021;50.882;4.326;2023-12-14T06:34:45;9.00;99.90
17795;DHT22;9021;50.882;4.326;2023-12-14T06:37:11;8.90;99.90
17795;DHT22;9021;50.882;4.326;2023-12-14T06:39:36;9.00;99.90
17795;DHT22;9021;50.882;4.326;2023-12-14T06:42:02;9.10;99.90
17795;DHT22;9021;50.882;4.326;2023-12-14T06:44:28;9.00;99.90
17795;DHT22;9021;50.882;4.326;2023-12-14T06:46:55;9.10;99.90
17795;DHT22;9021;50.882;4.326;2023-12-14T06:49:23;9.00;99.90
17795;DHT22;9021;50.882;4.326;2023-12-14T06:51:49;9.00;99.90
17795;DHT22;9021;50.882;4.326;2023-12-14T06:54:15;9.00;99.90
17795;DHT22;9021;50.882;4.326;2023-12-14T06:56:40;9.10;99.90
17795;DHT22;9021;50.882;4.326;2023-12-14T06:59:06;9.00;99.90
17795;DHT22;9021;50.882;4.326;2023-12-14T07:01:31;8.80;99.90
17795;DHT22;9021;50.882;4.326;2023-12-14T07:03:57;8.70;99.90
17795;DHT22;9021;50.882;4.326;2023-12-14T07:06:23;8.70;99.90
17795;DHT22;9021;50.882;4.326;2023-12-14T07:08:48;8.60;99.90
17795;DHT22;9021;50.882;4.326;2023-12-14T07:11:14;8.50;99.90
17795;DHT22;9021;50.882;4.326;2023-12-14T07:13:40;8.70;99.90
17795;DHT22;9021;50.882;4.326;2023-12-14T07:16:07;8.70;99.90
17795;DHT22;9021;50.882;4.326;2023-12-14T07:18:34;8.60;99.90
17795;DHT22;9021;50.882;4.326;2023-12-14T07:21:01;8.60;99.90
17795;DHT22;9021;50.882;4.326;2023-12-14T07:23:27;8.60;99.90
17795;DHT22;9021;50.882;4.326;2023-12-14T07:25:53;8.50;99.90
17795;DHT22;9021;50.882;4.326;2023-12-14T07:28:19;8.50;99.90
17795;DHT22;9021;50.882;4.326;2023-12-14T07:30:45;8.30;99.90
17795;DHT22;9021;50.882;4.326;2023-12-14T07:33:12;8.30;99.90
17795;DHT22;9021;50.882;4.326;2023-12-14T07:35:37;8.10;99.90
17795;DHT22;9021;50.882;4.326;2023-12-14T07:38:03;8.20;99.90
17795;DHT22;9021;50.882;4.326;2023-12-14T07:40:29;7.10;99.90
17795;DHT22;9021;50.882;4.326;2023-12-14T07:42:54;8.60;99.90
17795;DHT22;9021;50.882;4.326;2023-12-14T07:45:20;8.60;99.90
17795;DHT22;9021;50.882;4.326;2023-12-14T07:47:46;8.70;99.90
17795;DHT22;9021;50.882;4.326;2023-12-14T07:50:12;8.60;99.90
17795;DHT22;9021;50.882;4.326;2023-12-14T07:52:38;8.60;99.90
17795;DHT22;9021;50.882;4.326;2023-12-14T07:55:05;8.60;99.90
17795;DHT22;9021;50.882;4.326;2023-12-14T07:57:31;8.60;99.90
17795;DHT22;9021;50.882;4.326;2023-12-14T07:59:57;8.60;99.90
17795;DHT22;9021;50.882;4.326;2023-12-14T08:02:23;8.70;99.90
17795;DHT22;9021;50.882;4.326;2023-12-14T08:04:48;8.60;99.90
17795;DHT22;9021;50.882;4.326;2023-12-14T08:07:14;8.60;99.90
17795;DHT22;9021;50.882;4.326;2023-12-14T08:09:39;8.70;99.90
17795;DHT22;9021;50.882;4.326;2023-12-14T08:12:05;8.80;99.90
17795;DHT22;9021;50.882;4.326;2023-12-14T08:14:34;8.80;99.90
17795;DHT22;9021;50.882;4.326;2023-12-14T08:17:01;8.80;99.90
17795;DHT22;9021;50.882;4.326;2023-12-14T08:19:26;8.80;99.90
17795;DHT22;9021;50.882;4.326;2023-12-14T08:21:53;8.80;99.90
17795;DHT22;9021;50.882;4.326;2023-12-14T08:24:18;9.00;99.90
17795;DHT22;9021;50.882;4.326;2023-12-14T08:26:44;9.00;99.90
17795;DHT22;9021;50.882;4.326;2023-12-14T08:29:09;9.10;99.90
17795;DHT22;9021;50.882;4.326;2023-12-14T08:31:35;9.20;99.90
17795;DHT22;9021;50.882;4.326;2023-12-14T08:34:01;9.20;99.90
17795;DHT22;9021;50.882;4.326;2023-12-14T08:36:26;9.20;99.90
17795;DHT22;9021;50.882;4.326;2023-12-14T08:38:52;9.20;99.90
17795;DHT22;9021;50.882;4.326;2023-12-14T08:41:18;9.00;99.90
17795;DHT22;9021;50.882;4.326;2023-12-14T08:43:43;8.90;99.90
17795;DHT22;9021;50.882;4.326;2023-12-14T08:46:09;8.80;99.90
17795;DHT22;9021;50.882;4.326;2023-12-14T08:48:38;8.90;99.90
17795;DHT22;9021;50.882;4.326;2023-12-14T08:51:04;8.80;99.90
17795;DHT22;9021;50.882;4.326;2023-12-14T08:53:30;8.70;99.90
17795;DHT22;9021;50.882;4.326;2023-12-14T08:55:55;8.90;99.90
17795;DHT22;9021;50.882;4.326;2023-12-14T08:58:21;9.00;99.90
17795;DHT22;9021;50.882;4.326;2023-12-14T09:00:47;9.10;99.90
17795;DHT22;9021;50.882;4.326;2023-12-14T09:03:13;9.20;99.90
17795;DHT22;9021;50.882;4.326;2023-12-14T09:05:38;9.40;99.90
17795;DHT22;9021;50.882;4.326;2023-12-14T09:08:07;9.50;99.90
17795;DHT22;9021;50.882;4.326;2023-12-14T09:10:33;9.50;99.90
17795;DHT22;9021;50.882;4.326;2023-12-14T09:12:59;9.50;99.90
17795;DHT22;9021;50.882;4.326;2023-12-14T09:15:25;9.60;99.90
17795;DHT22;9021;50.882;4.326;2023-12-14T09:17:51;9.70;99.90
17795;DHT22;9021;50.882;4.326;2023-12-14T09:20:17;9.80;99.90
17795;DHT22;9021;50.882;4.326;2023-12-14T09:22:42;9.80;99.90
17795;DHT22;9021;50.882;4.326;2023-12-14T09:25:08;9.80;99.90
17795;DHT22;9021;50.882;4.326;2023-12-14T09:27:35;9.80;99.90
17795;DHT22;9021;50.882;4.326;2023-12-14T09:30:00;9.90;99.90
17795;DHT22;9021;50.882;4.326;2023-12-14T09:32:26;10.00;99.90
17795;DHT22;9021;50.882;4.326;2023-12-14T09:34:52;10.00;99.90
17795;DHT22;9021;50.882;4.326;2023-12-14T09:37:22;10.10;99.90
17795;DHT22;9021;50.882;4.326;2023-12-14T09:39:47;10.00;99.90
17795;DHT22;9021;50.882;4.326;2023-12-14T09:42:16;9.90;99.90
17795;DHT22;9021;50.882;4.326;2023-12-14T09:44:43;9.90;99.90
17795;DHT22;9021;50.882;4.326;2023-12-14T09:47:09;9.80;99.90
17795;DHT22;9021;50.882;4.326;2023-12-14T09:49:35;9.70;99.90
17795;DHT22;9021;50.882;4.326;2023-12-14T09:52:02;10.90;99.90
17795;DHT22;9021;50.882;4.326;2023-12-14T09:54:28;9.60;99.90
17795;DHT22;9021;50.882;4.326;2023-12-14T09:56:54;9.60;99.90
17795;DHT22;9021;50.882;4.326;2023-12-14T09:59:20;9.60;99.90
17795;DHT22;9021;50.882;4.326;2023-12-14T10:01:45;9.60;99.90
17795;DHT22;9021;50.882;4.326;2023-12-14T10:04:17;9.60;99.90
17795;DHT22;9021;50.882;4.326;2023-12-14T10:06:44;9.60;99.90
17795;DHT22;9021;50.882;4.326;2023-12-14T10:09:11;9.70;99.90
17795;DHT22;9021;50.882;4.326;2023-12-14T10:11:40;9.80;99.90
17795;DHT22;9021;50.882;4.326;2023-12-14T10:14:24;9.80;99.90
17795;DHT22;9021;50.882;4.326;2023-12-14T10:16:51;9.70;99.90
17795;DHT22;9021;50.882;4.326;2023-12-14T10:19:18;9.80;99.90
17795;DHT22;9021;50.882;4.326;2023-12-14T10:21:46;9.80;99.90
17795;DHT22;9021;50.882;4.326;2023-12-14T10:24:13;9.90;99.90
17795;DHT22;9021;50.882;4.326;2023-12-14T10:26:39;9.90;99.90
17795;DHT22;9021;50.882;4.326;2023-12-14T10:29:04;9.80;99.90
17795;DHT22;9021;50.882;4.326;2023-12-14T10:31:33;9.90;99.90
17795;DHT22;9021;50.882;4.326;2023-12-14T10:34:06;10.00;99.90
17795;DHT22;9021;50.882;4.326;2023-12-14T10:36:32;10.00;99.90
17795;DHT22;9021;50.882;4.326;2023-12-14T10:38:59;10.10;99.90
17795;DHT22;9021;50.882;4.326;2023-12-14T10:41:25;10.10;99.90
17795;DHT22;9021;50.882;4.326;2023-12-14T10:43:55;10.10;99.90
17795;DHT22;9021;50.882;4.326;2023-12-14T10:46:21;10.10;99.90
17795;DHT22;9021;50.882;4.326;2023-12-14T10:48:50;10.20;99.90
17795;DHT22;9021;50.882;4.326;2023-12-14T10:51:17;10.30;99.90
17795;DHT22;9021;50.882;4.326;2023-12-14T10:53:44;10.30;99.90
17795;DHT22;9021;50.882;4.326;2023-12-14T10:56:14;10.30;99.90
17795;DHT22;9021;50.882;4.326;2023-12-14T10:58:47;10.50;99.90
17795;DHT22;9021;50.882;4.326;2023-12-14T11:01:15;10.50;99.90
17795;DHT22;9021;50.882;4.326;2023-12-14T11:03:42;10.50;99.90
17795;DHT22;9021;50.882;4.326;2023-12-14T11:06:36;10.60;99.90
17795;DHT22;9021;50.882;4.326;2023-12-14T11:09:07;10.50;99.90
17795;DHT22;9021;50.882;4.326;2023-12-14T11:14:19;10.40;99.90
17795;DHT22;9021;50.882;4.326;2023-12-14T11:16:48;10.50;99.90
17795;DHT22;9021;50.882;4.326;2023-12-14T11:19:25;10.50;99.90
17795;DHT22;9021;50.882;4.326;2023-12-14T11:24:23;10.40;99.90
17795;DHT22;9021;50.882;4.326;2023-12-14T11:26:51;10.40;99.90
17795;DHT22;9021;50.882;4.326;2023-12-14T11:29:18;10.40;99.90
17795;DHT22;9021;50.882;4.326;2023-12-14T11:31:45;10.40;99.90
17795;DHT22;9021;50.882;4.326;2023-12-14T11:34:11;10.50;99.90
17795;DHT22;9021;50.882;4.326;2023-12-14T11:36:37;10.50;99.90
17795;DHT22;9021;50.882;4.326;2023-12-14T11:39:07;10.30;99.90
17795;DHT22;9021;50.882;4.326;2023-12-14T11:41:33;10.40;99.90
17795;DHT22;9021;50.882;4.326;2023-12-14T11:43:59;10.40;99.90
17795;DHT22;9021;50.882;4.326;2023-12-14T11:46:25;10.30;99.90
17795;DHT22;9021;50.882;4.326;2023-12-14T11:48:51;10.40;99.90
17795;DHT22;9021;50.882;4.326;2023-12-14T11:51:17;10.30;99.90
17795;DHT22;9021;50.882;4.326;2023-12-14T11:53:47;10.20;99.90
17795;DHT22;9021;50.882;4.326;2023-12-14T11:56:16;10.30;99.90
17795;DHT22;9021;50.882;4.326;2023-12-14T11:58:44;10.30;99.90
17795;DHT22;9021;50.882;4.326;2023-12-14T12:01:15;10.30;99.90
17795;DHT22;9021;50.882;4.326;2023-12-14T12:03:40;10.30;99.90
17795;DHT22;9021;50.882;4.326;2023-12-14T12:06:06;10.20;99.90
17795;DHT22;9021;50.882;4.326;2023-12-14T12:08:40;10.30;99.90
17795;DHT22;9021;50.882;4.326;2023-12-14T12:11:07;10.30;99.90
17795;DHT22;9021;50.882;4.326;2023-12-14T12:13:34;10.40;99.90
17795;DHT22;9021;50.882;4.326;2023-12-14T12:16:00;10.40;99.90
17795;DHT22;9021;50.882;4.326;2023-12-14T12:18:25;10.40;99.90
17795;DHT22;9021;50.882;4.326;2023-12-14T12:20:51;10.30;99.90
17795;DHT22;9021;50.882;4.326;2023-12-14T12:23:18;10.30;99.90
17795;DHT22;9021;50.882;4.326;2023-12-14T12:25:44;10.20;99.90
17795;DHT22;9021;50.882;4.326;2023-12-14T12:28:10;10.10;99.90
17795;DHT22;9021;50.882;4.326;2023-12-14T12:30:35;10.10;99.90
17795;DHT22;9021;50.882;4.326;2023-12-14T12:33:01;10.10;99.90
17795;DHT22;9021;50.882;4.326;2023-12-14T12:35:27;10.10;99.90
17795;DHT22;9021;50.882;4.326;2023-12-14T12:37:55;10.20;99.90
17795;DHT22;9021;50.882;4.326;2023-12-14T12:40:24;10.20;99.90
17795;DHT22;9021;50.882;4.326;2023-12-14T12:42:55;10.20;99.90
17795;DHT22;9021;50.882;4.326;2023-12-14T12:45:20;10.20;99.90
17795;DHT22;9021;50.882;4.326;2023-12-14T12:47:53;10.30;99.90
17795;DHT22;9021;50.882;4.326;2023-12-14T12:50:19;10.20;99.90
17795;DHT22;9021;50.882;4.326;2023-12-14T12:52:45;10.20;99.90
17795;DHT22;9021;50.882;4.326;2023-12-14T12:55:14;10.30;99.90
17795;DHT22;9021;50.882;4.326;2023-12-14T12:57:40;10.20;99.90
17795;DHT22;9021;50.882;4.326;2023-12-14T13:00:07;10.20;99.90
17795;DHT22;9021;50.882;4.326;2023-12-14T13:02:40;10.10;99.90
17795;DHT22;9021;50.882;4.326;2023-12-14T13:05:07;10.10;99.90
17795;DHT22;9021;50.882;4.326;2023-12-14T13:07:34;10.10;99.90
17795;DHT22;9021;50.882;4.326;2023-12-14T13:10:00;10.10;99.90
17795;DHT22;9021;50.882;4.326;2023-12-14T13:12:26;10.10;99.90
17795;DHT22;9021;50.882;4.326;2023-12-14T13:14:51;10.20;99.90
17795;DHT22;9021;50.882;4.326;2023-12-14T13:17:17;10.20;99.90
17795;DHT22;9021;50.882;4.326;2023-12-14T13:19:44;10.30;99.90
17795;DHT22;9021;50.882;4.326;2023-12-14T13:22:10;10.20;99.90
17795;DHT22;9021;50.882;4.326;2023-12-14T13:24:37;10.20;99.90
17795;DHT22;9021;50.882;4.326;2023-12-14T13:27:03;10.10;99.90
17795;DHT22;9021;50.882;4.326;2023-12-14T13:29:29;10.20;99.90
17795;DHT22;9021;50.882;4.326;2023-12-14T13:31:57;10.10;99.90
17795;DHT22;9021;50.882;4.326;2023-12-14T13:34:23;10.10;99.90
17795;DHT22;9021;50.882;4.326;2023-12-14T13:36:48;10.20;99.90
17795;DHT22;9021;50.882;4.326;2023-12-14T13:39:14;10.20;99.90
17795;DHT22;9021;50.882;4.326;2023-12-14T13:41:40;10.30;99.90
17795;DHT22;9021;50.882;4.326;2023-12-14T13:44:06;10.40;99.90
17795;DHT22;9021;50.882;4.326;2023-12-14T13:46:32;10.30;99.90
17795;DHT22;9021;50.882;4.326;2023-12-14T13:48:57;10.40;99.90
17795;DHT22;9021;50.882;4.326;2023-12-14T13:51:23;10.30;99.90
17795;DHT22;9021;50.882;4.326;2023-12-14T13:53:48;10.20;99.90
17795;DHT22;9021;50.882;4.326;2023-12-14T13:56:14;10.30;99.90
17795;DHT22;9021;50.882;4.326;2023-12-14T13:58:40;10.40;99.90
17795;DHT22;9021;50.882;4.326;2023-12-14T14:01:05;10.40;99.90
17795;DHT22;9021;50.882;4.326;2023-12-14T14:03:35;10.50;99.90
17795;DHT22;9021;50.882;4.326;2023-12-14T14:06:03;10.50;99.90
17795;DHT22;9021;50.882;4.326;2023-12-14T14:08:28;10.50;99.90
17795;DHT22;9021;50.882;4.326;2023-12-14T14:10:57;10.50;99.90
17795;DHT22;9021;50.882;4.326;2023-12-14T14:13:22;10.50;99.90
17795;DHT22;9021;50.882;4.326;2023-12-14T14:15:48;10.50;99.90
17795;DHT22;9021;50.882;4.326;2023-12-14T14:18:14;10.40;99.90
17795;DHT22;9021;50.882;4.326;2023-12-14T14:20:39;10.40;99.90
17795;DHT22;9021;50.882;4.326;2023-12-14T14:23:05;10.40;99.90
17795;DHT22;9021;50.882;4.326;2023-12-14T14:25:31;10.40;99.90
17795;DHT22;9021;50.882;4.326;2023-12-14T14:27:56;10.40;99.90
17795;DHT22;9021;50.882;4.326;2023-12-14T14:30:24;10.50;99.90
17795;DHT22;9021;50.882;4.326;2023-12-14T14:32:49;10.40;99.90
17795;DHT22;9021;50.882;4.326;2023-12-14T14:35:15;10.40;99.90
17795;DHT22;9021;50.882;4.326;2023-12-14T14:37:41;10.40;99.90
17795;DHT22;9021;50.882;4.326;2023-12-14T14:40:11;10.30;99.90
17795;DHT22;9021;50.882;4.326;2023-12-14T14:42:39;10.30;99.90
17795;DHT22;9021;50.882;4.326;2023-12-14T14:45:06;10.30;99.90
17795;DHT22;9021;50.882;4.326;2023-12-14T14:47:31;10.30;99.90
17795;DHT22;9021;50.882;4.326;2023-12-14T14:49:57;10.20;99.90
17795;DHT22;9021;50.882;4.326;2023-12-14T14:52:28;10.20;99.90
17795;DHT22;9021;50.882;4.326;2023-12-14T14:54:54;10.20;99.90
17795;DHT22;9021;50.882;4.326;2023-12-14T14:57:19;10.20;99.90
17795;DHT22;9021;50.882;4.326;2023-12-14T14:59:45;10.20;99.90
17795;DHT22;9021;50.882;4.326;2023-12-14T15:02:11;10.20;99.90
17795;DHT22;9021;50.882;4.326;2023-12-14T15:04:36;10.10;99.90
17795;DHT22;9021;50.882;4.326;2023-12-14T15:07:02;10.10;99.90
17795;DHT22;9021;50.882;4.326;2023-12-14T15:09:28;10.10;99.90
17795;DHT22;9021;50.882;4.326;2023-12-14T15:11:54;10.10;99.90
17795;DHT22;9021;50.882;4.326;2023-12-14T15:14:19;10.10;99.90
17795;DHT22;9021;50.882;4.326;2023-12-14T15:16:45;10.10;99.90
17795;DHT22;9021;50.882;4.326;2023-12-14T15:19:12;10.00;99.90
17795;DHT22;9021;50.882;4.326;2023-12-14T15:21:37;9.90;99.90
17795;DHT22;9021;50.882;4.326;2023-12-14T15:24:03;9.90;99.90
17795;DHT22;9021;50.882;4.326;2023-12-14T15:26:29;10.00;99.90
17795;DHT22;9021;50.882;4.326;2023-12-14T15:28:58;10.00;99.90
17795;DHT22;9021;50.882;4.326;2023-12-14T15:31:24;9.90;99.90
17795;DHT22;9021;50.882;4.326;2023-12-14T15:33:50;9.90;99.90
17795;DHT22;9021;50.882;4.326;2023-12-14T15:36:15;10.00;99.90
17795;DHT22;9021;50.882;4.326;2023-12-14T15:38:41;9.90;99.90
17795;DHT22;9021;50.882;4.326;2023-12-14T15:41:12;9.90;99.90
17795;DHT22;9021;50.882;4.326;2023-12-14T15:43:37;9.90;99.90
17795;DHT22;9021;50.882;4.326;2023-12-14T15:46:03;9.80;99.90
17795;DHT22;9021;50.882;4.326;2023-12-14T15:48:29;9.70;99.90
17795;DHT22;9021;50.882;4.326;2023-12-14T15:50:55;9.80;99.90